sensor_id;sensor_type;location;lat;lon;timestamp;P1;durP1;ratioP1;P2;durP2;ratioP2
43042;SDS011;28667;50.758;6.096;2023-03-14T00:01:36;0.82;;;0.38;;
43042;SDS011;28667;50.758;6.096;2023-03-14T00:04:03;5.18;;;0.80;;
43042;SDS011;28667;50.758;6.096;2023-03-14T00:06:30;4.82;;;0.60;;
43042;SDS011;28667;50.758;6.096;2023-03-14T00:08:56;3.17;;;0.70;;
43042;SDS011;28667;50.758;6.096;2023-03-14T00:11:22;7.25;;;1.08;;
43042;SDS011;28667;50.758;6.096;2023-03-14T00:13:51;1.83;;;0.60;;
43042;SDS011;28667;50.758;6.096;2023-03-14T00:16:18;2.17;;;0.75;;
43042;SDS011;28667;50.758;6.096;2023-03-14T00:18:44;0.65;;;0.55;;
43042;SDS011;28667;50.758;6.096;2023-03-14T00:21:10;4.30;;;0.60;;
43042;SDS011;28667;50.758;6.096;2023-03-14T00:23:37;3.28;;;1.20;;
43042;SDS011;28667;50.758;6.096;2023-03-14T00:26:14;5.90;;;1.08;;
43042;SDS011;28667;50.758;6.096;2023-03-14T00:28:41;3.58;;;0.77;;
43042;SDS011;28667;50.758;6.096;2023-03-14T00:31:08;1.80;;;0.50;;
43042;SDS011;28667;50.758;6.096;2023-03-14T00:33:35;0.77;;;0.40;;
43042;SDS011;28667;50.758;6.096;2023-03-14T00:36:07;4.75;;;0.70;;
43042;SDS011;28667;50.758;6.096;2023-03-14T00:38:36;2.75;;;0.52;;
43042;SDS011;28667;50.758;6.096;2023-03-14T00:41:04;1.15;;;0.10;;
43042;SDS011;28667;50.758;6.096;2023-03-14T00:43:31;1.85;;;0.22;;
43042;SDS011;28667;50.758;6.096;2023-03-14T00:45:57;1.20;;;0.30;;
43042;SDS011;28667;50.758;6.096;2023-03-14T00:48:25;0.30;;;0.30;;
43042;SDS011;28667;50.758;6.096;2023-03-14T00:50:52;2.65;;;0.35;;
43042;SDS011;28667;50.758;6.096;2023-03-14T00:53:17;0.47;;;0.28;;
43042;SDS011;28667;50.758;6.096;2023-03-14T00:55:44;0.75;;;0.38;;
43042;SDS011;28667;50.758;6.096;2023-03-14T00:58:13;1.13;;;0.30;;
43042;SDS011;28667;50.758;6.096;2023-03-14T01:00:40;3.97;;;0.73;;
43042;SDS011;28667;50.758;6.096;2023-03-14T01:03:09;5.10;;;0.43;;
43042;SDS011;28667;50.758;6.096;2023-03-14T01:05:35;3.58;;;0.70;;
43042;SDS011;28667;50.758;6.096;2023-03-14T01:08:01;0.60;;;0.30;;
43042;SDS011;28667;50.758;6.096;2023-03-14T01:10:27;2.33;;;0.40;;
43042;SDS011;28667;50.758;6.096;2023-03-14T01:12:53;2.30;;;0.43;;
43042;SDS011;28667;50.758;6.096;2023-03-14T01:15:18;2.50;;;0.15;;
43042;SDS011;28667;50.758;6.096;2023-03-14T01:17:44;3.85;;;0.50;;
43042;SDS011;28667;50.758;6.096;2023-03-14T01:20:11;1.63;;;0.50;;
43042;SDS011;28667;50.758;6.096;2023-03-14T01:22:38;6.07;;;0.40;;
43042;SDS011;28667;50.758;6.096;2023-03-14T01:25:05;2.00;;;0.35;;
43042;SDS011;28667;50.758;6.096;2023-03-14T01:27:32;3.28;;;0.45;;
43042;SDS011;28667;50.758;6.096;2023-03-14T01:29:58;2.60;;;0.38;;
43042;SDS011;28667;50.758;6.096;2023-03-14T01:32:24;3.95;;;0.45;;
43042;SDS011;28667;50.758;6.096;2023-03-14T01:34:51;0.38;;;0.20;;
43042;SDS011;28667;50.758;6.096;2023-03-14T01:37:17;2.25;;;0.60;;
43042;SDS011;28667;50.758;6.096;2023-03-14T01:39:43;3.10;;;0.60;;
43042;SDS011;28667;50.758;6.096;2023-03-14T01:42:09;1.50;;;0.28;;
43042;SDS011;28667;50.758;6.096;2023-03-14T01:47:13;1.15;;;0.30;;
43042;SDS011;28667;50.758;6.096;2023-03-14T01:49:38;3.63;;;0.30;;
43042;SDS011;28667;50.758;6.096;2023-03-14T01:55:23;3.00;;;0.45;;
43042;SDS011;28667;50.758;6.096;2023-03-14T01:57:51;0.82;;;0.30;;
43042;SDS011;28667;50.758;6.096;2023-03-14T02:00:22;2.38;;;0.95;;
43042;SDS011;28667;50.758;6.096;2023-03-14T02:02:58;2.50;;;0.25;;
43042;SDS011;28667;50.758;6.096;2023-03-14T02:05:32;0.57;;;0.30;;
43042;SDS011;28667;50.758;6.096;2023-03-14T02:08:04;1.40;;;0.68;;
43042;SDS011;28667;50.758;6.096;2023-03-14T02:10:44;0.73;;;0.38;;
43042;SDS011;28667;50.758;6.096;2023-03-14T02:13:13;3.40;;;0.85;;
43042;SDS011;28667;50.758;6.096;2023-03-14T02:15:59;7.97;;;1.17;;
43042;SDS011;28667;50.758;6.096;2023-03-14T02:18:40;4.70;;;0.60;;
43042;SDS011;28667;50.758;6.096;2023-03-14T02:21:49;11.27;;;1.10;;
43042;SDS011;28667;50.758;6.096;2023-03-14T02:27:09;3.90;;;0.75;;
43042;SDS011;28667;50.758;6.096;2023-03-14T02:29:45;1.85;;;0.35;;
43042;SDS011;28667;50.758;6.096;2023-03-14T02:32:22;3.92;;;1.33;;
43042;SDS011;28667;50.758;6.096;2023-03-14T02:34:51;4.40;;;1.05;;
43042;SDS011;28667;50.758;6.096;2023-03-14T02:37:20;7.18;;;1.13;;
43042;SDS011;28667;50.758;6.096;2023-03-14T02:39:51;5.90;;;1.00;;
43042;SDS011;28667;50.758;6.096;2023-03-14T02:42:17;4.40;;;0.95;;
43042;SDS011;28667;50.758;6.096;2023-03-14T02:44:52;2.38;;;0.40;;
43042;SDS011;28667;50.758;6.096;2023-03-14T02:47:27;10.88;;;1.38;;
43042;SDS011;28667;50.758;6.096;2023-03-14T02:50:29;5.20;;;0.90;;
43042;SDS011;28667;50.758;6.096;2023-03-14T02:52:50;1.65;;;0.90;;
43042;SDS011;28667;50.758;6.096;2023-03-14T02:55:23;3.78;;;1.02;;
43042;SDS011;28667;50.758;6.096;2023-03-14T02:57:53;1.35;;;0.55;;
43042;SDS011;28667;50.758;6.096;2023-03-14T03:00:19;3.65;;;0.85;;
43042;SDS011;28667;50.758;6.096;2023-03-14T03:02:45;3.70;;;0.63;;
43042;SDS011;28667;50.758;6.096;2023-03-14T03:05:13;3.30;;;0.65;;
43042;SDS011;28667;50.758;6.096;2023-03-14T03:07:39;6.32;;;0.68;;
43042;SDS011;28667;50.758;6.096;2023-03-14T03:10:05;3.58;;;0.60;;
43042;SDS011;28667;50.758;6.096;2023-03-14T03:12:31;1.80;;;0.60;;
43042;SDS011;28667;50.758;6.096;2023-03-14T03:14:56;1.42;;;0.40;;
43042;SDS011;28667;50.758;6.096;2023-03-14T03:17:22;3.25;;;0.55;;
43042;SDS011;28667;50.758;6.096;2023-03-14T03:19:48;0.60;;;0.47;;
43042;SDS011;28667;50.758;6.096;2023-03-14T03:22:14;0.88;;;0.40;;
43042;SDS011;28667;50.758;6.096;2023-03-14T03:24:40;16.52;;;0.63;;
43042;SDS011;28667;50.758;6.096;2023-03-14T03:27:05;0.68;;;0.20;;
43042;SDS011;28667;50.758;6.096;2023-03-14T03:29:31;0.47;;;0.32;;
43042;SDS011;28667;50.758;6.096;2023-03-14T03:31:57;0.15;;;0.10;;
43042;SDS011;28667;50.758;6.096;2023-03-14T03:34:23;2.83;;;1.08;;
43042;SDS011;28667;50.758;6.096;2023-03-14T03:36:52;0.95;;;0.28;;
43042;SDS011;28667;50.758;6.096;2023-03-14T03:39:21;2.45;;;0.40;;
43042;SDS011;28667;50.758;6.096;2023-03-14T03:41:48;0.30;;;0.22;;
43042;SDS011;28667;50.758;6.096;2023-03-14T03:44:13;0.32;;;0.13;;
43042;SDS011;28667;50.758;6.096;2023-03-14T03:46:40;0.63;;;0.17;;
43042;SDS011;28667;50.758;6.096;2023-03-14T03:49:07;0.10;;;0.10;;
43042;SDS011;28667;50.758;6.096;2023-03-14T03:51:34;0.35;;;0.25;;
43042;SDS011;28667;50.758;6.096;2023-03-14T03:53:59;0.80;;;0.30;;
43042;SDS011;28667;50.758;6.096;2023-03-14T03:56:34;0.20;;;0.20;;
43042;SDS011;28667;50.758;6.096;2023-03-14T03:59:00;0.10;;;0.10;;
43042;SDS011;28667;50.758;6.096;2023-03-14T04:01:25;0.45;;;0.30;;
43042;SDS011;28667;50.758;6.096;2023-03-14T04:03:55;0.10;;;0.10;;
43042;SDS011;28667;50.758;6.096;2023-03-14T04:06:22;2.38;;;0.10;;
43042;SDS011;28667;50.758;6.096;2023-03-14T04:08:51;0.47;;;0.10;;
43042;SDS011;28667;50.758;6.096;2023-03-14T04:11:36;0.10;;;0.10;;
43042;SDS011;28667;50.758;6.096;2023-03-14T04:14:09;0.10;;;0.10;;
43042;SDS011;28667;50.758;6.096;2023-03-14T04:16:35;0.35;;;0.10;;
43042;SDS011;28667;50.758;6.096;2023-03-14T04:19:08;3.85;;;0.75;;
43042;SDS011;28667;50.758;6.096;2023-03-14T04:21:35;0.60;;;0.00;;
43042;SDS011;28667;50.758;6.096;2023-03-14T04:24:00;0.85;;;0.10;;
43042;SDS011;28667;50.758;6.096;2023-03-14T04:26:30;0.80;;;0.10;;
43042;SDS011;28667;50.758;6.096;2023-03-14T04:28:56;0.30;;;0.28;;
43042;SDS011;28667;50.758;6.096;2023-03-14T04:31:22;0.10;;;0.10;;
43042;SDS011;28667;50.758;6.096;2023-03-14T04:33:49;0.00;;;0.00;;
43042;SDS011;28667;50.758;6.096;2023-03-14T04:36:20;0.00;;;0.00;;
43042;SDS011;28667;50.758;6.096;2023-03-14T04:38:46;1.67;;;0.20;;
43042;SDS011;28667;50.758;6.096;2023-03-14T04:41:15;0.22;;;0.00;;
43042;SDS011;28667;50.758;6.096;2023-03-14T04:43:41;0.00;;;0.00;;
43042;SDS011;28667;50.758;6.096;2023-03-14T04:46:09;0.00;;;0.00;;
43042;SDS011;28667;50.758;6.096;2023-03-14T04:48:35;0.20;;;0.03;;
43042;SDS011;28667;50.758;6.096;2023-03-14T04:51:02;0.10;;;0.00;;
43042;SDS011;28667;50.758;6.096;2023-03-14T04:53:31;0.00;;;0.00;;
43042;SDS011;28667;50.758;6.096;2023-03-14T04:55:58;0.00;;;0.00;;
43042;SDS011;28667;50.758;6.096;2023-03-14T04:58:31;0.00;;;0.00;;
43042;SDS011;28667;50.758;6.096;2023-03-14T05:01:03;0.00;;;0.00;;
43042;SDS011;28667;50.758;6.096;2023-03-14T05:03:37;0.52;;;0.20;;
43042;SDS011;28667;50.758;6.096;2023-03-14T05:06:15;0.20;;;0.10;;
43042;SDS011;28667;50.758;6.096;2023-03-14T05:09:07;0.00;;;0.00;;
43042;SDS011;28667;50.758;6.096;2023-03-14T05:11:44;0.00;;;0.00;;
43042;SDS011;28667;50.758;6.096;2023-03-14T05:14:28;0.00;;;0.00;;
43042;SDS011;28667;50.758;6.096;2023-03-14T05:17:04;0.00;;;0.00;;
43042;SDS011;28667;50.758;6.096;2023-03-14T05:19:53;0.10;;;0.00;;
43042;SDS011;28667;50.758;6.096;2023-03-14T05:22:25;0.00;;;0.00;;
43042;SDS011;28667;50.758;6.096;2023-03-14T05:25:07;0.10;;;0.10;;
43042;SDS011;28667;50.758;6.096;2023-03-14T05:27:53;1.03;;;0.00;;
43042;SDS011;28667;50.758;6.096;2023-03-14T05:30:38;0.00;;;0.00;;
43042;SDS011;28667;50.758;6.096;2023-03-14T05:33:36;0.05;;;0.05;;
43042;SDS011;28667;50.758;6.096;2023-03-14T05:36:08;0.00;;;0.00;;
43042;SDS011;28667;50.758;6.096;2023-03-14T05:38:52;0.00;;;0.00;;
43042;SDS011;28667;50.758;6.096;2023-03-14T05:41:38;0.10;;;0.00;;
43042;SDS011;28667;50.758;6.096;2023-03-14T05:44:22;0.00;;;0.00;;
43042;SDS011;28667;50.758;6.096;2023-03-14T05:47:06;0.00;;;0.00;;
43042;SDS011;28667;50.758;6.096;2023-03-14T05:49:50;0.00;;;0.00;;
43042;SDS011;28667;50.758;6.096;2023-03-14T05:52:34;0.00;;;0.00;;
43042;SDS011;28667;50.758;6.096;2023-03-14T05:55:20;0.00;;;0.00;;
43042;SDS011;28667;50.758;6.096;2023-03-14T05:57:52;0.00;;;0.00;;
43042;SDS011;28667;50.758;6.096;2023-03-14T06:00:41;0.00;;;0.00;;
43042;SDS011;28667;50.758;6.096;2023-03-14T06:03:18;0.00;;;0.00;;
43042;SDS011;28667;50.758;6.096;2023-03-14T06:05:49;0.00;;;0.00;;
43042;SDS011;28667;50.758;6.096;2023-03-14T06:08:16;0.05;;;0.05;;
43042;SDS011;28667;50.758;6.096;2023-03-14T06:10:42;0.00;;;0.00;;
43042;SDS011;28667;50.758;6.096;2023-03-14T06:13:08;0.30;;;0.00;;
43042;SDS011;28667;50.758;6.096;2023-03-14T06:15:34;0.00;;;0.00;;
43042;SDS011;28667;50.758;6.096;2023-03-14T06:18:01;0.10;;;0.00;;
43042;SDS011;28667;50.758;6.096;2023-03-14T06:20:27;0.00;;;0.00;;
43042;SDS011;28667;50.758;6.096;2023-03-14T06:22:53;0.98;;;0.08;;
43042;SDS011;28667;50.758;6.096;2023-03-14T06:25:19;0.00;;;0.00;;
43042;SDS011;28667;50.758;6.096;2023-03-14T06:27:46;0.00;;;0.00;;
43042;SDS011;28667;50.758;6.096;2023-03-14T06:30:13;0.10;;;0.00;;
43042;SDS011;28667;50.758;6.096;2023-03-14T06:32:39;0.00;;;0.00;;
43042;SDS011;28667;50.758;6.096;2023-03-14T06:35:08;0.00;;;0.00;;
43042;SDS011;28667;50.758;6.096;2023-03-14T06:37:38;0.05;;;0.05;;
43042;SDS011;28667;50.758;6.096;2023-03-14T06:40:04;0.00;;;0.00;;
43042;SDS011;28667;50.758;6.096;2023-03-14T06:42:54;0.00;;;0.00;;
43042;SDS011;28667;50.758;6.096;2023-03-14T06:45:21;0.10;;;0.10;;
43042;SDS011;28667;50.758;6.096;2023-03-14T06:47:48;0.10;;;0.10;;
43042;SDS011;28667;50.758;6.096;2023-03-14T06:50:16;1.00;;;0.30;;
43042;SDS011;28667;50.758;6.096;2023-03-14T06:52:43;0.10;;;0.10;;
43042;SDS011;28667;50.758;6.096;2023-03-14T06:55:15;0.65;;;0.30;;
43042;SDS011;28667;50.758;6.096;2023-03-14T06:57:41;0.22;;;0.10;;
43042;SDS011;28667;50.758;6.096;2023-03-14T07:00:09;0.40;;;0.20;;
43042;SDS011;28667;50.758;6.096;2023-03-14T07:02:37;0.50;;;0.40;;
43042;SDS011;28667;50.758;6.096;2023-03-14T07:05:03;0.20;;;0.10;;
43042;SDS011;28667;50.758;6.096;2023-03-14T07:07:30;0.10;;;0.10;;
43042;SDS011;28667;50.758;6.096;2023-03-14T07:09:56;0.13;;;0.10;;
43042;SDS011;28667;50.758;6.096;2023-03-14T07:12:22;0.10;;;0.10;;
43042;SDS011;28667;50.758;6.096;2023-03-14T07:14:48;1.45;;;0.13;;
43042;SDS011;28667;50.758;6.096;2023-03-14T07:17:15;0.20;;;0.10;;
43042;SDS011;28667;50.758;6.096;2023-03-14T07:19:40;0.10;;;0.05;;
43042;SDS011;28667;50.758;6.096;2023-03-14T07:22:08;0.20;;;0.20;;
43042;SDS011;28667;50.758;6.096;2023-03-14T07:24:33;0.00;;;0.00;;
43042;SDS011;28667;50.758;6.096;2023-03-14T07:26:59;0.10;;;0.08;;
43042;SDS011;28667;50.758;6.096;2023-03-14T07:29:25;0.10;;;0.03;;
43042;SDS011;28667;50.758;6.096;2023-03-14T07:31:51;0.10;;;0.10;;
43042;SDS011;28667;50.758;6.096;2023-03-14T07:34:19;0.60;;;0.10;;
43042;SDS011;28667;50.758;6.096;2023-03-14T07:36:45;0.28;;;0.20;;
43042;SDS011;28667;50.758;6.096;2023-03-14T07:39:10;0.10;;;0.10;;
43042;SDS011;28667;50.758;6.096;2023-03-14T07:41:44;0.10;;;0.10;;
43042;SDS011;28667;50.758;6.096;2023-03-14T07:44:39;0.00;;;0.00;;
43042;SDS011;28667;50.758;6.096;2023-03-14T07:47:05;0.32;;;0.20;;
43042;SDS011;28667;50.758;6.096;2023-03-14T07:49:31;0.30;;;0.20;;
43042;SDS011;28667;50.758;6.096;2023-03-14T07:51:57;0.38;;;0.20;;
43042;SDS011;28667;50.758;6.096;2023-03-14T07:54:23;0.20;;;0.20;;
43042;SDS011;28667;50.758;6.096;2023-03-14T07:56:49;0.13;;;0.13;;
43042;SDS011;28667;50.758;6.096;2023-03-14T07:59:17;0.35;;;0.20;;
43042;SDS011;28667;50.758;6.096;2023-03-14T08:01:43;0.52;;;0.30;;
43042;SDS011;28667;50.758;6.096;2023-03-14T08:04:09;0.40;;;0.15;;
43042;SDS011;28667;50.758;6.096;2023-03-14T08:06:35;0.30;;;0.30;;
43042;SDS011;28667;50.758;6.096;2023-03-14T08:09:01;0.77;;;0.32;;
43042;SDS011;28667;50.758;6.096;2023-03-14T08:11:27;0.40;;;0.30;;
43042;SDS011;28667;50.758;6.096;2023-03-14T08:13:53;1.55;;;0.30;;
43042;SDS011;28667;50.758;6.096;2023-03-14T08:16:19;0.88;;;0.35;;
43042;SDS011;28667;50.758;6.096;2023-03-14T08:18:45;0.70;;;0.40;;
43042;SDS011;28667;50.758;6.096;2023-03-14T08:21:11;0.20;;;0.10;;
43042;SDS011;28667;50.758;6.096;2023-03-14T08:23:37;0.05;;;0.05;;
43042;SDS011;28667;50.758;6.096;2023-03-14T08:26:03;0.30;;;0.30;;
43042;SDS011;28667;50.758;6.096;2023-03-14T08:28:29;1.95;;;0.38;;
43042;SDS011;28667;50.758;6.096;2023-03-14T08:30:57;0.47;;;0.20;;
43042;SDS011;28667;50.758;6.096;2023-03-14T08:33:24;0.15;;;0.10;;
43042;SDS011;28667;50.758;6.096;2023-03-14T08:35:54;1.95;;;0.20;;
43042;SDS011;28667;50.758;6.096;2023-03-14T08:38:24;0.20;;;0.20;;
43042;SDS011;28667;50.758;6.096;2023-03-14T08:40:54;0.10;;;0.10;;
43042;SDS011;28667;50.758;6.096;2023-03-14T08:43:21;0.65;;;0.20;;
43042;SDS011;28667;50.758;6.096;2023-03-14T08:45:47;0.40;;;0.28;;
43042;SDS011;28667;50.758;6.096;2023-03-14T08:48:13;0.10;;;0.10;;
43042;SDS011;28667;50.758;6.096;2023-03-14T08:50:39;0.25;;;0.10;;
43042;SDS011;28667;50.758;6.096;2023-03-14T08:53:04;0.20;;;0.20;;
43042;SDS011;28667;50.758;6.096;2023-03-14T08:55:30;0.20;;;0.20;;
43042;SDS011;28667;50.758;6.096;2023-03-14T08:57:56;0.20;;;0.20;;
43042;SDS011;28667;50.758;6.096;2023-03-14T09:00:21;0.20;;;0.20;;
43042;SDS011;28667;50.758;6.096;2023-03-14T09:02:47;0.63;;;0.30;;
43042;SDS011;28667;50.758;6.096;2023-03-14T09:05:13;0.82;;;0.30;;
43042;SDS011;28667;50.758;6.096;2023-03-14T09:07:39;0.20;;;0.20;;
43042;SDS011;28667;50.758;6.096;2023-03-14T09:10:06;1.50;;;0.20;;
43042;SDS011;28667;50.758;6.096;2023-03-14T09:12:33;2.40;;;0.13;;
43042;SDS011;28667;50.758;6.096;2023-03-14T09:14:58;0.32;;;0.20;;
43042;SDS011;28667;50.758;6.096;2023-03-14T09:17:24;0.20;;;0.20;;
43042;SDS011;28667;50.758;6.096;2023-03-14T09:19:50;1.85;;;0.30;;
43042;SDS011;28667;50.758;6.096;2023-03-14T09:22:16;0.30;;;0.30;;
43042;SDS011;28667;50.758;6.096;2023-03-14T09:24:41;0.45;;;0.32;;
43042;SDS011;28667;50.758;6.096;2023-03-14T09:27:07;2.00;;;0.63;;
43042;SDS011;28667;50.758;6.096;2023-03-14T09:29:33;0.50;;;0.50;;
43042;SDS011;28667;50.758;6.096;2023-03-14T09:31:59;0.60;;;0.60;;
43042;SDS011;28667;50.758;6.096;2023-03-14T09:34:25;0.95;;;0.60;;
43042;SDS011;28667;50.758;6.096;2023-03-14T09:36:51;0.60;;;0.60;;
43042;SDS011;28667;50.758;6.096;2023-03-14T09:39:17;0.80;;;0.80;;
43042;SDS011;28667;50.758;6.096;2023-03-14T09:41:44;1.40;;;1.30;;
43042;SDS011;28667;50.758;6.096;2023-03-14T09:46:41;1.17;;;1.08;;
43042;SDS011;28667;50.758;6.096;2023-03-14T09:49:14;1.08;;;0.98;;
43042;SDS011;28667;50.758;6.096;2023-03-14T09:51:50;0.98;;;0.98;;
43042;SDS011;28667;50.758;6.096;2023-03-14T09:54:24;0.88;;;0.77;;
43042;SDS011;28667;50.758;6.096;2023-03-14T09:56:56;2.45;;;0.88;;
43042;SDS011;28667;50.758;6.096;2023-03-14T09:59:22;2.63;;;1.05;;
43042;SDS011;28667;50.758;6.096;2023-03-14T10:01:48;1.50;;;0.90;;
43042;SDS011;28667;50.758;6.096;2023-03-14T10:04:15;1.40;;;0.98;;
43042;SDS011;28667;50.758;6.096;2023-03-14T10:06:44;0.98;;;0.98;;
43042;SDS011;28667;50.758;6.096;2023-03-14T10:09:12;1.02;;;0.93;;
43042;SDS011;28667;50.758;6.096;2023-03-14T10:11:51;1.27;;;0.90;;
43042;SDS011;28667;50.758;6.096;2023-03-14T10:14:28;1.80;;;0.80;;
43042;SDS011;28667;50.758;6.096;2023-03-14T10:16:56;1.13;;;1.02;;
43042;SDS011;28667;50.758;6.096;2023-03-14T10:19:31;1.00;;;1.00;;
43042;SDS011;28667;50.758;6.096;2023-03-14T10:21:57;0.70;;;0.70;;
43042;SDS011;28667;50.758;6.096;2023-03-14T10:24:28;0.77;;;0.77;;
43042;SDS011;28667;50.758;6.096;2023-03-14T10:27:00;1.00;;;0.90;;
43042;SDS011;28667;50.758;6.096;2023-03-14T10:29:30;2.30;;;0.77;;
43042;SDS011;28667;50.758;6.096;2023-03-14T10:32:06;2.35;;;1.00;;
43042;SDS011;28667;50.758;6.096;2023-03-14T10:34:42;1.65;;;1.10;;
43042;SDS011;28667;50.758;6.096;2023-03-14T10:37:18;1.25;;;1.13;;
43042;SDS011;28667;50.758;6.096;2023-03-14T10:39:48;2.13;;;1.00;;
43042;SDS011;28667;50.758;6.096;2023-03-14T10:42:26;1.30;;;1.20;;
43042;SDS011;28667;50.758;6.096;2023-03-14T10:44:59;5.95;;;1.52;;
43042;SDS011;28667;50.758;6.096;2023-03-14T10:47:27;1.20;;;0.90;;
43042;SDS011;28667;50.758;6.096;2023-03-14T10:49:54;1.25;;;0.85;;
43042;SDS011;28667;50.758;6.096;2023-03-14T10:52:27;1.33;;;1.10;;
43042;SDS011;28667;50.758;6.096;2023-03-14T10:55:01;1.25;;;0.65;;
43042;SDS011;28667;50.758;6.096;2023-03-14T10:57:41;2.88;;;0.28;;
43042;SDS011;28667;50.758;6.096;2023-03-14T11:00:15;0.05;;;0.05;;
43042;SDS011;28667;50.758;6.096;2023-03-14T11:02:51;0.10;;;0.10;;
43042;SDS011;28667;50.758;6.096;2023-03-14T11:08:01;0.20;;;0.20;;
43042;SDS011;28667;50.758;6.096;2023-03-14T11:18:37;4.47;;;0.93;;
43042;SDS011;28667;50.758;6.096;2023-03-14T11:21:29;1.55;;;0.50;;
43042;SDS011;28667;50.758;6.096;2023-03-14T11:26:50;0.40;;;0.40;;
43042;SDS011;28667;50.758;6.096;2023-03-14T11:32:14;1.65;;;0.90;;
43042;SDS011;28667;50.758;6.096;2023-03-14T11:34:50;2.15;;;0.52;;
43042;SDS011;28667;50.758;6.096;2023-03-14T11:39:54;1.05;;;0.68;;
43042;SDS011;28667;50.758;6.096;2023-03-14T11:42:29;1.08;;;0.30;;
43042;SDS011;28667;50.758;6.096;2023-03-14T11:44:57;1.23;;;0.30;;
43042;SDS011;28667;50.758;6.096;2023-03-14T11:47:29;0.43;;;0.38;;
43042;SDS011;28667;50.758;6.096;2023-03-14T11:50:19;0.52;;;0.52;;
43042;SDS011;28667;50.758;6.096;2023-03-14T11:52:56;0.43;;;0.30;;
43042;SDS011;28667;50.758;6.096;2023-03-14T11:55:37;0.30;;;0.30;;
43042;SDS011;28667;50.758;6.096;2023-03-14T12:01:03;0.30;;;0.28;;
43042;SDS011;28667;50.758;6.096;2023-03-14T12:03:38;0.30;;;0.30;;
43042;SDS011;28667;50.758;6.096;2023-03-14T12:08:58;0.28;;;0.28;;
43042;SDS011;28667;50.758;6.096;2023-03-14T12:14:24;1.97;;;0.60;;
43042;SDS011;28667;50.758;6.096;2023-03-14T12:16:55;0.15;;;0.15;;
43042;SDS011;28667;50.758;6.096;2023-03-14T12:19:41;0.40;;;0.40;;
43042;SDS011;28667;50.758;6.096;2023-03-14T12:24:53;0.40;;;0.30;;
43042;SDS011;28667;50.758;6.096;2023-03-14T12:30:17;0.60;;;0.20;;
43042;SDS011;28667;50.758;6.096;2023-03-14T12:35:51;1.63;;;0.30;;
43042;SDS011;28667;50.758;6.096;2023-03-14T12:46:54;0.22;;;0.20;;
43042;SDS011;28667;50.758;6.096;2023-03-14T12:49:30;0.30;;;0.20;;
43042;SDS011;28667;50.758;6.096;2023-03-14T12:52:00;1.33;;;0.40;;
43042;SDS011;28667;50.758;6.096;2023-03-14T12:59:55;1.33;;;0.47;;
43042;SDS011;28667;50.758;6.096;2023-03-14T13:05:14;0.90;;;0.30;;
43042;SDS011;28667;50.758;6.096;2023-03-14T13:13:11;0.80;;;0.30;;
43042;SDS011;28667;50.758;6.096;2023-03-14T13:15:44;0.73;;;0.73;;
43042;SDS011;28667;50.758;6.096;2023-03-14T13:20:52;0.63;;;0.35;;
43042;SDS011;28667;50.758;6.096;2023-03-14T13:23:25;3.60;;;0.40;;
43042;SDS011;28667;50.758;6.096;2023-03-14T13:25:52;1.65;;;0.35;;
43042;SDS011;28667;50.758;6.096;2023-03-14T13:28:19;1.10;;;0.60;;
43042;SDS011;28667;50.758;6.096;2023-03-14T13:30:46;1.38;;;0.57;;
43042;SDS011;28667;50.758;6.096;2023-03-14T13:33:14;0.65;;;0.30;;
43042;SDS011;28667;50.758;6.096;2023-03-14T13:35:46;1.30;;;0.45;;
43042;SDS011;28667;50.758;6.096;2023-03-14T13:38:24;0.20;;;0.20;;
43042;SDS011;28667;50.758;6.096;2023-03-14T13:40:51;0.25;;;0.03;;
43042;SDS011;28667;50.758;6.096;2023-03-14T13:46:06;0.13;;;0.13;;
43042;SDS011;28667;50.758;6.096;2023-03-14T13:49:00;0.38;;;0.10;;
43042;SDS011;28667;50.758;6.096;2023-03-14T13:51:26;0.50;;;0.20;;
43042;SDS011;28667;50.758;6.096;2023-03-14T13:53:57;0.70;;;0.45;;
43042;SDS011;28667;50.758;6.096;2023-03-14T13:56:29;1.27;;;0.38;;
43042;SDS011;28667;50.758;6.096;2023-03-14T13:58:57;1.08;;;0.43;;
43042;SDS011;28667;50.758;6.096;2023-03-14T14:03:51;0.52;;;0.40;;
43042;SDS011;28667;50.758;6.096;2023-03-14T14:06:32;1.90;;;0.68;;
43042;SDS011;28667;50.758;6.096;2023-03-14T14:09:02;2.85;;;0.38;;
43042;SDS011;28667;50.758;6.096;2023-03-14T14:11:43;6.95;;;1.00;;
43042;SDS011;28667;50.758;6.096;2023-03-14T14:14:20;3.20;;;0.30;;
43042;SDS011;28667;50.758;6.096;2023-03-14T14:16:50;14.48;;;1.08;;
43042;SDS011;28667;50.758;6.096;2023-03-14T14:19:18;2.03;;;0.55;;
43042;SDS011;28667;50.758;6.096;2023-03-14T14:21:45;3.70;;;0.90;;
43042;SDS011;28667;50.758;6.096;2023-03-14T14:24:14;3.55;;;0.70;;
43042;SDS011;28667;50.758;6.096;2023-03-14T14:26:47;3.65;;;0.43;;
43042;SDS011;28667;50.758;6.096;2023-03-14T14:29:29;1.38;;;0.13;;
43042;SDS011;28667;50.758;6.096;2023-03-14T14:32:00;6.18;;;0.40;;
43042;SDS011;28667;50.758;6.096;2023-03-14T14:34:43;2.65;;;0.93;;
43042;SDS011;28667;50.758;6.096;2023-03-14T14:37:34;4.13;;;0.82;;
43042;SDS011;28667;50.758;6.096;2023-03-14T14:40:10;2.45;;;0.75;;
43042;SDS011;28667;50.758;6.096;2023-03-14T14:42:44;4.63;;;1.02;;
43042;SDS011;28667;50.758;6.096;2023-03-14T14:45:13;5.32;;;0.70;;
43042;SDS011;28667;50.758;6.096;2023-03-14T14:50:31;4.88;;;0.90;;
43042;SDS011;28667;50.758;6.096;2023-03-14T14:56:35;3.65;;;0.90;;
43042;SDS011;28667;50.758;6.096;2023-03-14T14:59:00;3.55;;;0.52;;
43042;SDS011;28667;50.758;6.096;2023-03-14T15:03:57;3.80;;;0.73;;
43042;SDS011;28667;50.758;6.096;2023-03-14T15:06:23;4.90;;;1.23;;
43042;SDS011;28667;50.758;6.096;2023-03-14T15:08:53;3.50;;;0.85;;
43042;SDS011;28667;50.758;6.096;2023-03-14T15:11:23;3.03;;;1.15;;
43042;SDS011;28667;50.758;6.096;2023-03-14T15:13:51;4.40;;;0.85;;
43042;SDS011;28667;50.758;6.096;2023-03-14T15:16:18;5.38;;;0.85;;
43042;SDS011;28667;50.758;6.096;2023-03-14T15:18:48;4.35;;;1.33;;
43042;SDS011;28667;50.758;6.096;2023-03-14T15:21:20;11.43;;;1.05;;
43042;SDS011;28667;50.758;6.096;2023-03-14T15:23:47;6.57;;;0.80;;
43042;SDS011;28667;50.758;6.096;2023-03-14T15:26:13;6.03;;;1.40;;
43042;SDS011;28667;50.758;6.096;2023-03-14T15:28:42;4.25;;;0.80;;
43042;SDS011;28667;50.758;6.096;2023-03-14T15:31:08;2.05;;;0.90;;
43042;SDS011;28667;50.758;6.096;2023-03-14T15:33:35;3.55;;;1.25;;
43042;SDS011;28667;50.758;6.096;2023-03-14T15:36:02;2.63;;;0.77;;
43042;SDS011;28667;50.758;6.096;2023-03-14T15:38:29;6.05;;;1.00;;
43042;SDS011;28667;50.758;6.096;2023-03-14T15:40:55;3.90;;;1.55;;
43042;SDS011;28667;50.758;6.096;2023-03-14T15:43:20;6.80;;;1.23;;
43042;SDS011;28667;50.758;6.096;2023-03-14T15:45:46;3.90;;;0.93;;
43042;SDS011;28667;50.758;6.096;2023-03-14T15:48:21;4.03;;;0.80;;
43042;SDS011;28667;50.758;6.096;2023-03-14T15:50:47;1.75;;;0.90;;
43042;SDS011;28667;50.758;6.096;2023-03-14T15:53:13;5.45;;;0.82;;
43042;SDS011;28667;50.758;6.096;2023-03-14T15:55:38;3.80;;;0.93;;
43042;SDS011;28667;50.758;6.096;2023-03-14T15:58:04;5.03;;;1.02;;
43042;SDS011;28667;50.758;6.096;2023-03-14T16:00:30;5.75;;;1.30;;
43042;SDS011;28667;50.758;6.096;2023-03-14T16:02:57;1.00;;;0.90;;
43042;SDS011;28667;50.758;6.096;2023-03-14T16:05:23;5.65;;;1.15;;
43042;SDS011;28667;50.758;6.096;2023-03-14T16:07:49;2.58;;;1.10;;
43042;SDS011;28667;50.758;6.096;2023-03-14T16:10:15;5.15;;;1.38;;
43042;SDS011;28667;50.758;6.096;2023-03-14T16:12:41;5.07;;;1.58;;
43042;SDS011;28667;50.758;6.096;2023-03-14T16:15:07;2.58;;;1.20;;
43042;SDS011;28667;50.758;6.096;2023-03-14T16:17:34;4.32;;;1.00;;
43042;SDS011;28667;50.758;6.096;2023-03-14T16:20:02;3.33;;;1.27;;
43042;SDS011;28667;50.758;6.096;2023-03-14T16:22:29;1.58;;;1.02;;
43042;SDS011;28667;50.758;6.096;2023-03-14T16:25:00;3.00;;;1.10;;
43042;SDS011;28667;50.758;6.096;2023-03-14T16:27:27;8.13;;;1.55;;
43042;SDS011;28667;50.758;6.096;2023-03-14T16:29:52;3.42;;;1.30;;
43042;SDS011;28667;50.758;6.096;2023-03-14T16:32:18;7.47;;;1.67;;